createdAt,value
2022-12-06T00:03:35.098Z,17.9
2022-12-06T00:08:35.199Z,17.9
2022-12-06T00:13:35.258Z,17.9
2022-12-06T00:18:35.340Z,17.8
2022-12-06T00:23:35.292Z,17.9
2022-12-06T00:28:35.407Z,17.8
2022-12-06T00:33:35.593Z,17.9
2022-12-06T00:38:35.532Z,17.9
2022-12-06T00:43:35.786Z,17.9
2022-12-06T00:48:35.879Z,17.8
2022-12-06T00:53:36.010Z,17.9
2022-12-06T00:58:35.993Z,17.8
2022-12-06T01:03:35.993Z,17.8
2022-12-06T01:08:36.117Z,17.7
2022-12-06T01:13:36.146Z,17.8
2022-12-06T01:18:36.140Z,17.9
2022-12-06T01:23:36.351Z,17.7
2022-12-06T01:28:36.134Z,17.8
2022-12-06T01:33:36.137Z,17.8
2022-12-06T01:38:36.402Z,17.8
2022-12-06T01:43:36.590Z,17.8
2022-12-06T01:48:36.708Z,17.8
2022-12-06T01:53:36.575Z,17.8
2022-12-06T01:58:36.736Z,17.7
2022-12-06T02:03:36.861Z,17.8
2022-12-06T02:08:36.980Z,17.8
2022-12-06T02:13:37.249Z,17.8
2022-12-06T02:18:37.325Z,17.7
2022-12-06T02:23:37.515Z,17.8
2022-12-06T02:28:37.142Z,17.8
2022-12-06T02:33:37.224Z,17.7
2022-12-06T02:38:37.263Z,17.8
2022-12-06T02:43:37.473Z,17.7
2022-12-06T02:48:37.428Z,17.8
2022-12-06T02:53:37.353Z,17.8
2022-12-06T02:58:37.355Z,17.8
2022-12-06T03:03:37.397Z,17.7
2022-12-06T03:08:38.318Z,17.7
2022-12-06T03:13:40.890Z,17.7
2022-12-06T03:18:40.601Z,17.7
2022-12-06T03:23:40.660Z,17.7
2022-12-06T03:28:40.961Z,17.7
2022-12-06T03:33:40.848Z,17.7
2022-12-06T03:38:41.056Z,17.7
2022-12-06T03:43:40.679Z,17.7
2022-12-06T03:48:41.052Z,17.7
2022-12-06T03:53:41.180Z,17.7
2022-12-06T03:58:43.943Z,17.7
2022-12-06T04:03:43.356Z,17.7
2022-12-06T04:08:43.463Z,17.7
2022-12-06T04:13:43.580Z,17.7
2022-12-06T04:18:43.520Z,17.6
2022-12-06T04:23:43.690Z,17.7
2022-12-06T04:28:43.599Z,17.7
2022-12-06T04:33:43.829Z,17.6
2022-12-06T04:38:44.007Z,17.5
2022-12-06T04:43:44.201Z,17.6
2022-12-06T04:48:44.035Z,17.6
2022-12-06T04:53:45.123Z,17.5
2022-12-06T04:58:45.123Z,17.5
2022-12-06T05:03:45.260Z,17.5
2022-12-06T05:08:45.446Z,17.6
2022-12-06T05:13:45.465Z,17.5
2022-12-06T05:18:45.585Z,17.5
2022-12-06T05:23:45.485Z,17.6
2022-12-06T05:28:45.579Z,17.5
2022-12-06T05:33:45.525Z,17.5
2022-12-06T05:38:49.903Z,17.5
2022-12-06T05:43:47.985Z,17.6
2022-12-06T05:48:47.696Z,17.6
2022-12-06T05:53:50.372Z,17.4
2022-12-06T05:58:50.171Z,17.4
2022-12-06T06:03:52.739Z,17.6
2022-12-06T06:08:52.331Z,17.5
2022-12-06T06:13:52.369Z,17.6
2022-12-06T06:18:52.420Z,17.6
2022-12-06T06:23:52.665Z,17.5
2022-12-06T06:28:55.772Z,17.6
2022-12-06T06:33:55.374Z,17.7
2022-12-06T06:38:58.198Z,17.6
2022-12-06T06:43:57.575Z,17.6
2022-12-06T06:48:57.511Z,17.6
2022-12-06T06:54:00.418Z,17.7
2022-12-06T06:59:00.048Z,17.6
2022-12-06T07:04:00.047Z,17.6
2022-12-06T07:09:00.241Z,17.7
2022-12-06T07:14:00.374Z,17.7
2022-12-06T07:19:03.414Z,17.7
2022-12-06T07:24:00.589Z,17.6
2022-12-06T07:29:03.379Z,17.7
2022-12-06T07:34:02.814Z,17.7
2022-12-06T07:39:02.946Z,17.7
2022-12-06T07:44:02.919Z,17.8
2022-12-06T07:49:05.667Z,17.8
2022-12-06T07:54:05.561Z,17.7
2022-12-06T07:59:05.446Z,17.8
2022-12-06T08:04:05.426Z,17.8
2022-12-06T08:09:05.286Z,17.8
2022-12-06T08:14:05.418Z,17.8
2022-12-06T08:19:05.516Z,17.9
2022-12-06T08:24:05.374Z,17.9
2022-12-06T08:29:08.039Z,17.9
2022-12-06T08:34:07.647Z,17.8
2022-12-06T08:39:07.829Z,17.9
2022-12-06T08:44:10.628Z,17.9
2022-12-06T08:49:10.902Z,17.9
2022-12-06T08:54:10.750Z,17.9
2022-12-06T08:59:10.792Z,17.9
2022-12-06T09:04:10.761Z,17.9
2022-12-06T09:09:10.764Z,17.9
2022-12-06T09:14:10.931Z,17.9
2022-12-06T09:19:14.066Z,18
2022-12-06T09:24:13.509Z,17.9
2022-12-06T09:29:13.517Z,18
2022-12-06T09:34:16.438Z,18
2022-12-06T09:39:15.859Z,18.1
2022-12-06T09:44:18.762Z,18.1
2022-12-06T09:49:17.733Z,18.1
2022-12-06T09:54:17.963Z,18.1
2022-12-06T09:59:18.215Z,18.2
2022-12-06T10:04:21.234Z,18.2
2022-12-06T10:09:20.703Z,18.3
2022-12-06T10:14:20.798Z,18.3
2022-12-06T10:19:20.737Z,18.3
2022-12-06T10:24:20.874Z,18.3
2022-12-06T10:29:25.920Z,18.3
2022-12-06T10:34:21.147Z,18.4
2022-12-06T10:39:21.326Z,18.4
2022-12-06T10:44:21.129Z,18.3
2022-12-06T10:49:21.287Z,18.4
2022-12-06T10:54:21.164Z,18
2022-12-06T10:59:21.130Z,18.4
2022-12-06T11:04:24.048Z,18.5
2022-12-06T11:09:26.264Z,18.6
2022-12-06T11:14:25.791Z,18.5
2022-12-06T11:19:25.792Z,18.7
2022-12-06T11:24:28.694Z,18.7
2022-12-06T11:29:28.146Z,18.8
2022-12-06T11:34:28.269Z,18.8
2022-12-06T11:39:28.432Z,18.9
2022-12-06T11:44:28.698Z,18.9
2022-12-06T11:49:28.763Z,19
2022-12-06T11:54:29.038Z,19.1
2022-12-06T11:59:31.747Z,19.1
2022-12-06T12:04:31.068Z,19.1
2022-12-06T12:09:31.250Z,19.2
2022-12-06T12:14:31.373Z,19.1
2022-12-06T12:19:31.598Z,19.3
2022-12-06T12:24:31.584Z,19.3
2022-12-06T12:29:31.687Z,19.2
2022-12-06T12:34:31.637Z,19.3
2022-12-06T12:39:31.809Z,19.3
2022-12-06T12:44:39.946Z,19.4
2022-12-06T12:49:32.190Z,19.3
2022-12-06T12:54:32.002Z,19.3
2022-12-06T12:59:32.164Z,19.4
2022-12-06T13:04:32.254Z,19.5
2022-12-06T13:09:32.484Z,19.4
2022-12-06T13:14:32.473Z,19.5
2022-12-06T13:19:35.125Z,19.5
2022-12-06T13:24:34.726Z,19.4
2022-12-06T13:29:34.774Z,19.5
2022-12-06T13:34:37.738Z,19.4
2022-12-06T13:39:35.059Z,19.4
2022-12-06T13:44:35.389Z,19.5
2022-12-06T13:49:39.817Z,19.5
2022-12-06T13:54:35.276Z,19.5
2022-12-06T13:59:35.569Z,19.5
2022-12-06T14:09:35.469Z,19.4
2022-12-06T14:14:35.497Z,19.5
2022-12-06T14:19:35.603Z,19.5
2022-12-06T14:24:35.661Z,19.5
2022-12-06T14:29:35.866Z,19.5
2022-12-06T14:34:35.886Z,19.5
2022-12-06T14:39:36.096Z,19.5
2022-12-06T14:44:36.176Z,19.5
2022-12-06T14:49:36.318Z,19.5
2022-12-06T14:54:42.596Z,19.4
2022-12-06T15:00:14.187Z,19.5
2022-12-06T15:04:41.825Z,19.5
2022-12-06T15:09:41.909Z,19.5
2022-12-06T15:14:42.223Z,19.5
2022-12-06T15:19:42.162Z,19.5
2022-12-06T15:24:44.964Z,19.5
2022-12-06T15:29:44.564Z,19.5
2022-12-06T15:34:47.778Z,19.5
2022-12-06T15:39:45.793Z,19.5
2022-12-06T15:44:49.383Z,19.5
2022-12-06T15:49:46.384Z,19.5
2022-12-06T15:54:47.286Z,19.5
2022-12-06T15:59:47.353Z,19.4
2022-12-06T16:04:47.471Z,19.5
2022-12-06T16:09:49.403Z,19.5
2022-12-06T16:14:50.014Z,19.5
2022-12-06T16:19:53.994Z,19.5
2022-12-06T16:24:56.058Z,19.5
2022-12-06T16:29:55.846Z,19.5
2022-12-06T16:34:56.023Z,19.5
2022-12-06T16:39:55.955Z,19.5
2022-12-06T16:44:55.895Z,19.5
2022-12-06T16:49:56.036Z,19.5
2022-12-06T16:54:56.191Z,19.5
2022-12-06T16:59:56.315Z,19.5
2022-12-06T17:04:57.288Z,19.5
2022-12-06T17:09:57.172Z,19.5
2022-12-06T17:15:00.470Z,19.5
2022-12-06T17:19:59.903Z,19.5
2022-12-06T17:25:00.257Z,19.5
2022-12-06T17:30:00.017Z,19.5
2022-12-06T17:35:03.168Z,19.5
2022-12-06T17:40:03.374Z,19.5
2022-12-06T17:45:06.337Z,19.5
2022-12-06T17:50:06.578Z,19.4
2022-12-06T17:55:06.275Z,19.5
2022-12-06T18:00:06.367Z,19.5
2022-12-06T18:05:06.499Z,19.4
2022-12-06T18:10:06.405Z,19.3
2022-12-06T18:15:06.591Z,19.2
2022-12-06T18:20:06.658Z,19.1
2022-12-06T18:25:06.680Z,19.1
2022-12-06T18:30:06.559Z,19.1
2022-12-06T18:35:06.697Z,19
2022-12-06T18:40:06.491Z,19
2022-12-06T18:45:09.349Z,18.9
2022-12-06T18:50:10.430Z,18.8
2022-12-06T18:55:12.090Z,18.8
2022-12-06T19:00:14.467Z,18.8
2022-12-06T19:05:19.750Z,18.8
2022-12-06T19:10:14.173Z,18.8
2022-12-06T19:15:17.111Z,18.7
2022-12-06T19:20:16.626Z,18.7
2022-12-06T19:25:16.857Z,18.6
2022-12-06T19:30:16.894Z,18.7
2022-12-06T19:35:16.963Z,18.5
2022-12-06T19:40:17.055Z,18.6
2022-12-06T19:45:20.024Z,18.6
2022-12-06T19:50:19.744Z,18.6
2022-12-06T19:55:19.783Z,18.5
2022-12-06T20:00:22.855Z,18.5
2022-12-06T20:05:20.180Z,18.5
2022-12-06T20:10:24.237Z,18.5
2022-12-06T20:15:23.527Z,18.5
2022-12-06T20:20:23.243Z,18.5
2022-12-06T20:25:23.071Z,18.4
2022-12-06T20:30:23.137Z,18.5
2022-12-06T20:35:23.047Z,18.5
2022-12-06T20:40:26.916Z,18.4
2022-12-06T20:45:23.238Z,18.4
2022-12-06T20:50:23.521Z,18.4
2022-12-06T20:55:23.601Z,18.4
2022-12-06T21:00:23.713Z,18.4
2022-12-06T21:05:23.828Z,18.3
2022-12-06T21:10:23.833Z,18.4
2022-12-06T21:15:25.042Z,18.3
2022-12-06T21:20:24.865Z,18.3
2022-12-06T21:25:25.003Z,18.3
2022-12-06T21:30:25.044Z,18.3
2022-12-06T21:35:24.685Z,18.3
2022-12-06T21:40:24.686Z,18.3
2022-12-06T21:45:24.500Z,18.3
2022-12-06T21:50:24.515Z,18.3
2022-12-06T21:55:24.366Z,18.2
2022-12-06T22:00:24.753Z,18.2
2022-12-06T22:05:24.677Z,18.3
2022-12-06T22:10:24.944Z,18.2
2022-12-06T22:15:25.932Z,18.2
2022-12-06T22:20:25.781Z,18.2
2022-12-06T22:25:25.977Z,18.1
2022-12-06T22:30:26.984Z,18.1
2022-12-06T22:35:26.914Z,18.2
2022-12-06T22:40:26.931Z,18.2
2022-12-06T22:45:27.261Z,18.2
2022-12-06T22:50:27.587Z,18.2
2022-12-06T22:55:27.672Z,18.2
2022-12-06T23:00:27.839Z,18.1
2022-12-06T23:05:27.797Z,18.1
2022-12-06T23:10:28.040Z,18.1
2022-12-06T23:15:27.835Z,18.1
2022-12-06T23:20:27.778Z,18
2022-12-06T23:25:28.017Z,18
2022-12-06T23:30:29.168Z,18.1
2022-12-06T23:35:29.992Z,18.1
2022-12-06T23:40:30.048Z,18.1
2022-12-06T23:45:29.915Z,18.1
2022-12-06T23:50:30.043Z,18.1
2022-12-06T23:55:30.222Z,18.1
